Time;durP1;ratioP1;P1;durP2;ratioP2;P2;SDS_P1;SDS_P2;PMS_P1;PMS_P2;Temp;Humidity;BMP_temperature;BMP_pressure;BME280_temperature;BME280_humidity;BME280_pressure;Samples;Min_cycle;Max_cycle;Signal;HPM_P1;HPM_P2
2024/01/21 00:02:21;;;;;;;10;5.4;;;;;;;-5.94;80.95117;948.1318;;;;
2024/01/21 00:04:42;;;;;;;10.3;4.9;;;;;;;-6.01;81.23535;948.1221;;;;
2024/01/21 00:07:07;;;;;;;12.2;5.7;;;;;;;-5.99;80.7998;948.1392;;;;
2024/01/21 00:09:37;;;;;;;10.6;5.1;;;;;;;-5.9;81.14746;947.9977;;;;
2024/01/21 00:12:05;;;;;;;11.2;5.5;;;;;;;-5.96;81.40918;948.037;;;;
2024/01/21 00:14:30;;;;;;;13.2;6.3;;;;;;;-5.91;80.7959;947.9606;;;;
2024/01/21 00:16:55;;;;;;;13.1;6.9;;;;;;;-5.96;80.30176;947.9631;;;;
2024/01/21 00:19:23;;;;;;;10.4;4.9;;;;;;;-5.95;80.97363;947.8998;;;;
2024/01/21 00:21:54;;;;;;;11.5;5.9;;;;;;;-6.08;81.46289;948.0344;;;;
2024/01/21 00:24:22;;;;;;;9.9;4.9;;;;;;;-5.83;81.20508;947.9368;;;;
2024/01/21 00:26:46;;;;;;;9.9;4.9;;;;;;;-5.94;81.33789;947.9316;;;;
2024/01/21 00:29:16;;;;;;;9.7;4.2;;;;;;;-5.87;81.58301;947.9451;;;;
2024/01/21 00:31:41;;;;;;;11.9;5.7;;;;;;;-5.92;81.39648;947.9645;;;;
2024/01/21 00:34:10;;;;;;;10.9;5.3;;;;;;;-5.9;80.66406;947.9135;;;;
2024/01/21 00:36:39;;;;;;;12.2;6.3;;;;;;;-5.91;80.54297;947.7838;;;;
2024/01/21 00:39:04;;;;;;;12.8;6;;;;;;;-6.03;80.46387;947.7561;;;;
2024/01/21 00:41:32;;;;;;;15.9;6.9;;;;;;;-5.97;80.64941;947.7322;;;;
2024/01/21 00:43:57;;;;;;;13;5.4;;;;;;;-5.72;80.96289;947.6834;;;;
2024/01/21 00:46:25;;;;;;;8.7;4.4;;;;;;;-5.74;80.61621;947.7164;;;;
2024/01/21 00:48:50;;;;;;;9.7;4.7;;;;;;;-5.79;80.77246;947.6191;;;;
2024/01/21 00:51:15;;;;;;;8.7;4.3;;;;;;;-5.91;80.58496;947.6216;;;;
2024/01/21 00:53:40;;;;;;;11.7;5.1;;;;;;;-5.99;80.97559;947.6415;;;;
2024/01/21 00:56:06;;;;;;;9.1;4.9;;;;;;;-6.04;81.16504;947.5862;;;;
2024/01/21 00:58:36;;;;;;;9.6;4.2;;;;;;;-6;81.42383;947.6297;;;;
2024/01/21 01:01:15;;;;;;;8;4;;;;;;;-5.83;81.37012;947.5956;;;;
2024/01/21 01:03:41;;;;;;;5.9;3.1;;;;;;;-5.75;81.46289;947.5888;;;;
2024/01/21 01:06:07;;;;;;;6;3.4;;;;;;;-5.67;81.45703;947.6774;;;;
2024/01/21 01:08:34;;;;;;;7.2;3.9;;;;;;;-5.62;81.10254;947.6802;;;;
2024/01/21 01:11:01;;;;;;;7.3;4.2;;;;;;;-5.73;80.78516;947.6454;;;;
2024/01/21 01:13:32;;;;;;;8.4;4.1;;;;;;;-5.65;80.54785;947.6161;;;;
2024/01/21 01:15:57;;;;;;;8.4;3.9;;;;;;;-5.88;80.98633;947.6508;;;;
2024/01/21 01:18:26;;;;;;;8;4.2;;;;;;;-5.92;81.12207;947.7261;;;;
2024/01/21 01:20:53;;;;;;;9.3;4;;;;;;;-5.74;80.70605;947.6766;;;;
2024/01/21 01:23:17;;;;;;;7.7;4;;;;;;;-5.88;80.30664;947.7256;;;;
2024/01/21 01:25:47;;;;;;;7.9;4.1;;;;;;;-5.93;80.43848;947.7723;;;;
2024/01/21 01:28:12;;;;;;;7.9;4.2;;;;;;;-5.99;80.7998;947.78;;;;
2024/01/21 01:30:38;;;;;;;9.2;4.2;;;;;;;-5.82;80.34961;947.6782;;;;
2024/01/21 01:33:22;;;;;;;8.5;4.3;;;;;;;-5.84;80.08105;947.7169;;;;
2024/01/21 01:35:50;;;;;;;7.7;3.9;;;;;;;-5.98;80.67188;947.753;;;;
2024/01/21 01:38:17;;;;;;;6.8;3.5;;;;;;;-5.98;80.59473;947.8041;;;;
2024/01/21 01:40:51;;;;;;;6.1;3.2;;;;;;;-5.92;80.28711;947.8079;;;;
2024/01/21 01:43:31;;;;;;;6.5;3.7;;;;;;;-5.95;80.07324;947.799;;;;
2024/01/21 01:46:05;;;;;;;5.9;3.7;;;;;;;-5.92;80.32031;947.7324;;;;
2024/01/21 01:48:33;;;;;;;4.7;2.9;;;;;;;-5.62;79.74023;947.7444;;;;
2024/01/21 01:51:01;;;;;;;4.1;2.1;;;;;;;-5.49;79.18164;947.6979;;;;
2024/01/21 01:53:33;;;;;;;2.8;1.9;;;;;;;-5.31;78.36914;947.6984;;;;
2024/01/21 01:56:13;;;;;;;5.5;2.7;;;;;;;-5.07;76.99707;947.7068;;;;
2024/01/21 01:58:53;;;;;;;3;2.3;;;;;;;-4.87;76.81152;947.6691;;;;
2024/01/21 02:01:18;;;;;;;14.9;7.4;;;;;;;-4.94;76.9082;947.6841;;;;
2024/01/21 02:03:59;;;;;;;6.2;3;;;;;;;-4.99;77.00977;947.6296;;;;
2024/01/21 02:06:31;;;;;;;7.5;3.7;;;;;;;-5.03;76.77051;947.6939;;;;
2024/01/21 02:08:56;;;;;;;9.3;4.4;;;;;;;-5.12;76.34863;947.6375;;;;
2024/01/21 02:11:24;;;;;;;12.5;6.8;;;;;;;-5.31;76.83984;947.5912;;;;
2024/01/21 02:13:57;;;;;;;6.1;3.6;;;;;;;-5.39;77.04688;947.5422;;;;
2024/01/21 02:16:30;;;;;;;11.1;5.2;;;;;;;-5.63;77.56152;947.5966;;;;
2024/01/21 02:18:55;;;;;;;5.9;3.3;;;;;;;-5.58;77.7373;947.4522;;;;
2024/01/21 02:21:24;;;;;;;33.6;15.7;;;;;;;-5.73;78.43164;947.5472;;;;
2024/01/21 02:23:53;;;;;;;14.4;7.3;;;;;;;-5.62;78.91602;947.4066;;;;
2024/01/21 02:26:18;;;;;;;4.2;2.4;;;;;;;-5.52;78.84668;947.5209;;;;
2024/01/21 02:28:44;;;;;;;5.2;3.4;;;;;;;-5.75;79.06738;947.4978;;;;
2024/01/21 02:31:12;;;;;;;4.1;2.3;;;;;;;-5.51;78.71582;947.4148;;;;
2024/01/21 02:33:37;;;;;;;10;5.4;;;;;;;-5.76;79.15234;947.4981;;;;
2024/01/21 02:36:13;;;;;;;7.3;3.8;;;;;;;-5.73;79.29102;947.4639;;;;
2024/01/21 02:38:39;;;;;;;9.7;5.1;;;;;;;-5.93;79.86816;947.5417;;;;
2024/01/21 02:41:04;;;;;;;6.5;4.4;;;;;;;-6.04;80.59375;947.5567;;;;
2024/01/21 02:43:38;;;;;;;11.3;5.1;;;;;;;-6.05;80.37207;947.5129;;;;
2024/01/21 02:46:03;;;;;;;6.4;3.5;;;;;;;-6.07;80.50977;947.5231;;;;
2024/01/21 02:48:32;;;;;;;6.3;3.1;;;;;;;-5.88;80.1748;947.4967;;;;
2024/01/21 02:50:57;;;;;;;5.8;3;;;;;;;-5.74;79.46484;947.5555;;;;
2024/01/21 02:53:25;;;;;;;5.8;3.4;;;;;;;-5.86;79.49512;947.5446;;;;
2024/01/21 02:55:50;;;;;;;5;2.6;;;;;;;-5.77;79.31641;947.5256;;;;
2024/01/21 02:58:15;;;;;;;4.9;2.8;;;;;;;-5.94;79.60059;947.4634;;;;
2024/01/21 03:00:43;;;;;;;4.6;2.5;;;;;;;-5.97;79.78223;947.4263;;;;
2024/01/21 03:03:13;;;;;;;5;2.4;;;;;;;-5.91;79.87109;947.4758;;;;
2024/01/21 03:05:38;;;;;;;4.9;2.2;;;;;;;-5.98;79.93555;947.4878;;;;
2024/01/21 03:08:06;;;;;;;5.2;3;;;;;;;-6.12;80.3252;947.4796;;;;
2024/01/21 03:10:31;;;;;;;5.8;3.2;;;;;;;-6.09;80.2207;947.4702;;;;
2024/01/21 03:13:01;;;;;;;3.2;2.1;;;;;;;-5.87;79.8457;947.5524;;;;
2024/01/21 03:15:31;;;;;;;6.1;3.6;;;;;;;-6.1;80.02148;947.4781;;;;
2024/01/21 03:18:00;;;;;;;2.9;2;;;;;;;-5.87;79.42773;947.4826;;;;
2024/01/21 03:20:26;;;;;;;4.4;2.8;;;;;;;-6.09;79.81445;947.4805;;;;
2024/01/21 03:22:53;;;;;;;3.5;2.1;;;;;;;-5.95;79.77441;947.3758;;;;
2024/01/21 03:25:19;;;;;;;2.9;1.7;;;;;;;-6.02;80.1123;947.4241;;;;
2024/01/21 03:27:48;;;;;;;5;2.1;;;;;;;-5.94;80.0625;947.4288;;;;
2024/01/21 03:30:12;;;;;;;4;2.1;;;;;;;-6.05;79.83301;947.3942;;;;
2024/01/21 03:32:42;;;;;;;2.9;1.9;;;;;;;-6.09;80.10059;947.4687;;;;
2024/01/21 03:35:14;;;;;;;2.9;1.6;;;;;;;-6.21;80.53809;947.5075;;;;
2024/01/21 03:37:46;;;;;;;3.6;2.2;;;;;;;-6.32;81.16504;947.5086;;;;
2024/01/21 03:40:17;;;;;;;5.1;2.3;;;;;;;-6.21;80.88965;947.5075;;;;
2024/01/21 03:42:47;;;;;;;3.7;2.4;;;;;;;-6.31;81.375;947.5209;;;;
2024/01/21 03:45:15;;;;;;;6.5;2.3;;;;;;;-6.28;81.88477;947.5887;;;;
2024/01/21 03:47:47;;;;;;;3;2;;;;;;;-6.15;81.60449;947.6359;;;;
2024/01/21 03:50:20;;;;;;;6.1;2.8;;;;;;;-6.04;81.30566;947.5356;;;;
2024/01/21 03:52:53;;;;;;;5.7;2.5;;;;;;;-6.1;81.36133;947.5294;;;;
2024/01/21 03:55:22;;;;;;;5.1;2.9;;;;;;;-6.19;80.82715;947.5586;;;;
2024/01/21 03:57:47;;;;;;;6;2.8;;;;;;;-6.12;80.14844;947.524;;;;
2024/01/21 04:02:38;;;;;;;5.3;2.8;;;;;;;-6.11;80.33789;947.6142;;;;
2024/01/21 04:05:08;;;;;;;4.3;2.6;;;;;;;-6.26;80.78223;947.5687;;;;
2024/01/21 04:07:37;;;;;;;5.2;2.3;;;;;;;-6.04;80.55859;947.5377;;;;
2024/01/21 04:10:03;;;;;;;3.6;2.1;;;;;;;-6.07;80.48926;947.5876;;;;
2024/01/21 04:12:29;;;;;;;4.8;2.1;;;;;;;-6.06;80.32617;947.5829;;;;
2024/01/21 04:14:59;;;;;;;3.8;2;;;;;;;-5.98;80.06641;947.5117;;;;
2024/01/21 04:17:24;;;;;;;4.4;2.2;;;;;;;-6.31;80.53027;947.5746;;;;
2024/01/21 04:19:49;;;;;;;2.9;1.8;;;;;;;-6.32;80.80273;947.4543;;;;
2024/01/21 04:22:18;;;;;;;3.8;1.8;;;;;;;-6.21;80.72656;947.4847;;;;
2024/01/21 04:24:42;;;;;;;3.8;1.8;;;;;;;-6.22;80.73242;947.5516;;;;
2024/01/21 04:27:11;;;;;;;4.2;2.1;;;;;;;-6.34;81.28027;947.5613;;;;
2024/01/21 04:29:39;;;;;;;4.6;2.4;;;;;;;-6.08;80.80469;947.5678;;;;
2024/01/21 04:32:05;;;;;;;5.5;2.6;;;;;;;-6.07;80.23535;947.5645;;;;
2024/01/21 04:34:32;;;;;;;5.9;3;;;;;;;-6.22;80.62305;947.5903;;;;
2024/01/21 04:37:01;;;;;;;5.7;3.3;;;;;;;-6.39;81.00781;947.5511;;;;
2024/01/21 04:39:26;;;;;;;5.4;3.4;;;;;;;-6.22;80.64453;947.608;;;;
2024/01/21 04:41:52;;;;;;;7.6;3.9;;;;;;;-6.26;80.36328;947.5946;;;;
2024/01/21 04:44:20;;;;;;;6.9;3.2;;;;;;;-6.29;81.0498;947.6152;;;;
2024/01/21 04:46:45;;;;;;;6.8;3.4;;;;;;;-6.18;80.57617;947.618;;;;
2024/01/21 04:49:14;;;;;;;4.8;2.7;;;;;;;-6.18;80.32422;947.6241;;;;
2024/01/21 04:51:43;;;;;;;5.1;2.8;;;;;;;-6.33;80.85547;947.6225;;;;
2024/01/21 04:54:08;;;;;;;5.3;2.7;;;;;;;-6.24;81.01465;947.5809;;;;
2024/01/21 04:56:36;;;;;;;5.8;3;;;;;;;-6.14;81.0791;947.5284;;;;
2024/01/21 04:59:01;;;;;;;4.1;2.3;;;;;;;-6.06;80.5459;947.6831;;;;
2024/01/21 05:01:30;;;;;;;5;2.7;;;;;;;-6.25;80.84766;947.6519;;;;
2024/01/21 05:03:55;;;;;;;5.6;2.7;;;;;;;-6.09;80.66016;947.6324;;;;
2024/01/21 05:06:24;;;;;;;7;3.1;;;;;;;-6.05;80.77832;947.6117;;;;
2024/01/21 05:08:55;;;;;;;5.5;2.9;;;;;;;-6.16;81.12012;947.6775;;;;
2024/01/21 05:11:25;;;;;;;10.3;5.5;;;;;;;-6.06;80.70898;947.5793;;;;
2024/01/21 05:13:56;;;;;;;7.7;4.6;;;;;;;-5.86;80.11035;947.5972;;;;
2024/01/21 05:16:20;;;;;;;4.2;2.2;;;;;;;-6.06;80.41406;947.7054;;;;
2024/01/21 05:18:50;;;;;;;4.3;2.3;;;;;;;-6.03;80.81543;947.6931;;;;
2024/01/21 05:21:18;;;;;;;5.3;2;;;;;;;-6.03;80.80273;947.6781;;;;
2024/01/21 05:23:44;;;;;;;6.1;2.4;;;;;;;-6.07;80.68555;947.5516;;;;
2024/01/21 05:26:09;;;;;;;3.7;2.1;;;;;;;-6.1;80.79004;947.7489;;;;
2024/01/21 05:28:34;;;;;;;3.2;2;;;;;;;-6.2;81.09961;947.7888;;;;
2024/01/21 05:31:05;;;;;;;3.6;1.8;;;;;;;-6.34;81.62012;947.8024;;;;
2024/01/21 05:33:35;;;;;;;2.6;1.7;;;;;;;-6.24;81.74023;947.8081;;;;
2024/01/21 05:36:00;;;;;;;3.7;1.9;;;;;;;-6.13;81.07031;947.6884;;;;
2024/01/21 05:38:29;;;;;;;4.4;2.3;;;;;;;-6.26;81.66016;947.7221;;;;
2024/01/21 05:40:54;;;;;;;7.6;3.3;;;;;;;-6.14;81.26465;947.838;;;;
2024/01/21 05:43:24;;;;;;;5.4;2.9;;;;;;;-6.18;81.18066;947.8684;;;;
2024/01/21 05:45:57;;;;;;;7.1;3.2;;;;;;;-6.47;82.08008;947.9191;;;;
2024/01/21 05:48:22;;;;;;;4.6;2.8;;;;;;;-6.28;81.98438;947.8423;;;;
2024/01/21 05:50:50;;;;;;;3.2;2.4;;;;;;;-6.24;81.68359;947.8418;;;;
2024/01/21 05:53:16;;;;;;;3.8;2.4;;;;;;;-6.13;81.79492;947.817;;;;
2024/01/21 05:55:45;;;;;;;3.7;2.1;;;;;;;-6.28;82.02832;947.8951;;;;
2024/01/21 05:58:13;;;;;;;4.5;2.5;;;;;;;-6.2;81.89063;947.8967;;;;
2024/01/21 06:00:38;;;;;;;6.6;3.4;;;;;;;-6.28;82.20313;947.8387;;;;
2024/01/21 06:03:05;;;;;;;8;4.3;;;;;;;-6.22;82.18164;947.9706;;;;
2024/01/21 06:05:31;;;;;;;6.7;4.3;;;;;;;-6.24;82.45215;947.8862;;;;
2024/01/21 06:08:00;;;;;;;9.3;4.4;;;;;;;-6.06;81.3584;948.0015;;;;
2024/01/21 06:10:30;;;;;;;8.8;4.6;;;;;;;-5.97;80.74902;948.0148;;;;
2024/01/21 06:12:55;;;;;;;12.9;5.4;;;;;;;-6.22;81.07422;948.0139;;;;
2024/01/21 06:15:25;;;;;;;9.6;4.6;;;;;;;-6.25;80.99023;948.0041;;;;
2024/01/21 06:17:50;;;;;;;9.3;4.6;;;;;;;-6.16;80.87793;948.0056;;;;
2024/01/21 06:20:16;;;;;;;8.2;4.7;;;;;;;-6.24;81.30176;947.9285;;;;
2024/01/21 06:22:45;;;;;;;5.3;3.4;;;;;;;-6.12;81.66504;947.9467;;;;
2024/01/21 06:25:07;;;;;;;6.8;4.1;;;;;;;-6.08;81.8916;947.9615;;;;
2024/01/21 06:27:38;;;;;;;7.6;4.5;;;;;;;-6.17;82.04883;947.9877;;;;
2024/01/21 06:30:08;;;;;;;12;6.4;;;;;;;-6.26;82.17578;947.9778;;;;
2024/01/21 06:32:33;;;;;;;8.8;5.6;;;;;;;-6;81.51172;947.9373;;;;
2024/01/21 06:34:58;;;;;;;12;6.4;;;;;;;-6.07;81.16895;948.0405;;;;
2024/01/21 06:37:27;;;;;;;8.9;5.6;;;;;;;-6.18;81.87207;947.9651;;;;
2024/01/21 06:39:54;;;;;;;8.8;5.3;;;;;;;-6.06;81.61133;947.9938;;;;
2024/01/21 06:42:20;;;;;;;8.9;5.1;;;;;;;-6.04;81.81055;947.9976;;;;
2024/01/21 06:44:45;;;;;;;7.5;4.6;;;;;;;-6.17;82.07324;948.0853;;;;
2024/01/21 06:47:17;;;;;;;8.2;5;;;;;;;-6.03;81.99023;948.0945;;;;
2024/01/21 06:49:46;;;;;;;11.4;7;;;;;;;-6.06;81.20313;948.1235;;;;
2024/01/21 06:52:11;;;;;;;14.6;8.5;;;;;;;-6.13;81.56445;948.1379;;;;
2024/01/21 06:54:36;;;;;;;13.5;7.7;;;;;;;-5.94;81.53418;948.031;;;;
2024/01/21 06:57:01;;;;;;;11.6;6.8;;;;;;;-5.92;81.68164;948.1227;;;;
2024/01/21 06:59:29;;;;;;;9.7;6.1;;;;;;;-5.77;81.29395;948.1811;;;;
2024/01/21 07:01:55;;;;;;;12;6.1;;;;;;;-5.91;81.14551;948.169;;;;
2024/01/21 07:04:23;;;;;;;11.9;6.8;;;;;;;-5.9;81.00391;948.1678;;;;
2024/01/21 07:06:49;;;;;;;13.1;7.5;;;;;;;-6.13;81.25684;948.1478;;;;
2024/01/21 07:09:15;;;;;;;8.2;5.2;;;;;;;-6.15;81.31738;948.3625;;;;
2024/01/21 07:11:39;;;;;;;14.8;8.3;;;;;;;-5.86;80.69434;948.3281;;;;
2024/01/21 07:14:11;;;;;;;13.4;7.9;;;;;;;-5.84;80.74023;948.3511;;;;
2024/01/21 07:16:39;;;;;;;11.6;7.2;;;;;;;-5.87;80.92188;948.3082;;;;
2024/01/21 07:19:04;;;;;;;11.7;7.2;;;;;;;-5.91;80.95898;948.3199;;;;
2024/01/21 07:21:35;;;;;;;12.1;7.3;;;;;;;-5.97;81.17676;948.3323;;;;
2024/01/21 07:24:04;;;;;;;14.5;7;;;;;;;-6.05;81.60254;948.3223;;;;
2024/01/21 07:26:29;;;;;;;19.4;11.2;;;;;;;-5.78;81.58887;948.3235;;;;
2024/01/21 07:28:58;;;;;;;26.2;15.1;;;;;;;-5.75;81.55078;948.3427;;;;
2024/01/21 07:31:30;;;;;;;28.3;16.4;;;;;;;-5.85;81.34473;948.3376;;;;
2024/01/21 07:33:58;;;;;;;15.7;9;;;;;;;-5.88;81.63574;948.363;;;;
2024/01/21 07:36:23;;;;;;;16.5;9.4;;;;;;;-5.91;81.87988;948.2833;;;;
2024/01/21 07:38:51;;;;;;;14;8.3;;;;;;;-5.61;82.54492;948.3212;;;;
2024/01/21 07:41:16;;;;;;;14.7;8.1;;;;;;;-5.05;81.54395;948.2278;;;;
2024/01/21 07:43:44;;;;;;;12.2;6.8;;;;;;;-4.03;77.82715;948.2963;;;;
2024/01/21 07:46:10;;;;;;;15.2;9.6;;;;;;;-3.52;75.30469;948.3125;;;;
2024/01/21 07:48:34;;;;;;;13.6;9.2;;;;;;;-3.01;72.6748;948.3442;;;;
2024/01/21 07:51:02;;;;;;;13.6;8.3;;;;;;;-2.54;70.73047;948.3599;;;;
2024/01/21 07:53:27;;;;;;;13.4;7.9;;;;;;;-2.46;70.85449;948.3035;;;;
2024/01/21 07:55:57;;;;;;;10.8;7.2;;;;;;;-2.3;69.17383;948.4442;;;;
2024/01/21 07:58:28;;;;;;;13.4;8.2;;;;;;;-1.77;67.30957;948.4241;;;;
2024/01/21 08:00:52;;;;;;;11;7.3;;;;;;;-1.63;67.49902;948.4196;;;;
2024/01/21 08:03:23;;;;;;;10.1;5.8;;;;;;;-1.35;66.49902;948.4917;;;;
2024/01/21 08:05:55;;;;;;;7;4.4;;;;;;;-0.89;65.55078;948.5305;;;;
2024/01/21 08:08:20;;;;;;;8.4;6.2;;;;;;;-0.71;65.14551;948.4775;;;;
2024/01/21 08:10:50;;;;;;;10;6.5;;;;;;;-0.49;63.84473;948.4897;;;;
2024/01/21 08:13:15;;;;;;;10.5;6.5;;;;;;;-0.3;64.21875;948.4171;;;;
2024/01/21 08:15:40;;;;;;;9.6;6.3;;;;;;;0.08;62.99414;948.4135;;;;
2024/01/21 08:18:06;;;;;;;8.4;5.9;;;;;;;0.32;63.63184;948.4228;;;;
2024/01/21 08:20:30;;;;;;;11.8;6.8;;;;;;;0.77;62.38379;948.4102;;;;
2024/01/21 08:22:56;;;;;;;12.9;7.6;;;;;;;1.05;60.81641;948.3537;;;;
2024/01/21 08:25:22;;;;;;;9;6.5;;;;;;;1.47;60.11719;948.3555;;;;
2024/01/21 08:27:47;;;;;;;9.1;5.9;;;;;;;1.61;59.3877;948.3661;;;;
2024/01/21 08:30:16;;;;;;;8.6;4.7;;;;;;;2.04;58.25098;948.2881;;;;
2024/01/21 08:32:42;;;;;;;7.2;4.7;;;;;;;2.39;58.11719;948.3253;;;;
2024/01/21 08:35:17;;;;;;;7.4;5;;;;;;;2.67;57.6416;948.3149;;;;
2024/01/21 08:37:41;;;;;;;6.8;4.7;;;;;;;2.7;57.36621;948.4708;;;;
2024/01/21 08:40:10;;;;;;;7.8;5.6;;;;;;;2.77;55.47949;948.5483;;;;
2024/01/21 08:42:35;;;;;;;11.3;6.6;;;;;;;2.67;56.48535;948.5505;;;;
2024/01/21 08:45:04;;;;;;;11.2;6.9;;;;;;;2.95;56.0752;948.4894;;;;
2024/01/21 08:47:28;;;;;;;15.9;9.1;;;;;;;3.13;55.60352;948.6147;;;;
2024/01/21 08:49:56;;;;;;;12.4;8.3;;;;;;;3.15;54.53027;948.6577;;;;
2024/01/21 08:52:21;;;;;;;12.9;8.2;;;;;;;3.21;54.02148;948.6503;;;;
2024/01/21 08:54:52;;;;;;;14;8.8;;;;;;;3.28;54.50293;948.6597;;;;
2024/01/21 08:57:14;;;;;;;12.4;7.6;;;;;;;3.55;53.98535;948.7029;;;;
2024/01/21 08:59:41;;;;;;;12.9;8.3;;;;;;;3.77;53.84668;948.6741;;;;
2024/01/21 09:02:07;;;;;;;10.5;6.1;;;;;;;3.94;53.47363;948.6925;;;;
2024/01/21 09:04:32;;;;;;;9.4;6.1;;;;;;;4.15;54.0166;948.6998;;;;
2024/01/21 09:06:57;;;;;;;7.8;5.5;;;;;;;4.31;53.76758;948.6941;;;;
2024/01/21 09:09:25;;;;;;;5.8;4.2;;;;;;;4.35;52.35449;948.7664;;;;
2024/01/21 09:11:51;;;;;;;5.3;3.7;;;;;;;4.42;52.84766;948.745;;;;
2024/01/21 09:14:17;;;;;;;4.5;3.5;;;;;;;4.68;52.38281;948.6227;;;;
2024/01/21 09:16:43;;;;;;;3.5;2.6;;;;;;;4.94;50.96289;948.7399;;;;
2024/01/21 09:19:11;;;;;;;4.8;3.1;;;;;;;5.07;51.36035;948.8296;;;;
2024/01/21 09:21:36;;;;;;;5.5;3.5;;;;;;;5.02;51.80664;948.8315;;;;
2024/01/21 09:24:04;;;;;;;6.4;4.3;;;;;;;5.18;50.98047;948.6898;;;;
2024/01/21 09:26:28;;;;;;;9.6;4.9;;;;;;;5.26;50.36914;948.8617;;;;
2024/01/21 09:28:57;;;;;;;8;5.2;;;;;;;5.4;50.4873;948.7537;;;;
2024/01/21 09:31:22;;;;;;;7.1;4.8;;;;;;;5.29;51.64746;948.8469;;;;
2024/01/21 09:33:49;;;;;;;9.1;5.2;;;;;;;5.23;52.23633;948.8792;;;;
2024/01/21 09:36:15;;;;;;;11.1;7.5;;;;;;;5.29;51.5791;948.9114;;;;
2024/01/21 09:38:40;;;;;;;16.6;9.8;;;;;;;5.38;51.71387;948.9153;;;;
2024/01/21 09:41:06;;;;;;;17.2;11.5;;;;;;;5.36;51.40723;948.8847;;;;
2024/01/21 09:43:31;;;;;;;26.6;13.2;;;;;;;5.2;51.44531;948.8928;;;;
2024/01/21 09:45:56;;;;;;;22.4;12.5;;;;;;;5.12;52.05566;948.7469;;;;
2024/01/21 09:48:23;;;;;;;17.2;10.8;;;;;;;5.1;53.16895;948.8811;;;;
2024/01/21 09:50:46;;;;;;;13.9;8.1;;;;;;;4.93;53.25977;948.8976;;;;
2024/01/21 09:53:14;;;;;;;15.7;8.4;;;;;;;5.02;53.50781;948.877;;;;
2024/01/21 09:55:39;;;;;;;13.1;8.8;;;;;;;4.96;53.03906;948.8387;;;;
2024/01/21 09:58:05;;;;;;;14.4;9.3;;;;;;;5.01;53.21289;948.8292;;;;
2024/01/21 10:00:30;;;;;;;11.6;7.3;;;;;;;4.92;52.52539;948.801;;;;
2024/01/21 10:02:57;;;;;;;9.9;6.5;;;;;;;5;53.50586;948.8027;;;;
2024/01/21 10:05:22;;;;;;;9.1;6.1;;;;;;;5.06;52.2168;948.7551;;;;
2024/01/21 10:07:50;;;;;;;8.4;5.6;;;;;;;5.18;52.68262;948.6668;;;;
2024/01/21 10:10:25;;;;;;;8.9;5.3;;;;;;;5.22;51.98828;948.5979;;;;
2024/01/21 10:12:46;;;;;;;11.3;6.6;;;;;;;5.11;51.09473;948.7431;;;;
2024/01/21 10:15:11;;;;;;;18.9;8.5;;;;;;;5.04;51.84277;948.7505;;;;
2024/01/21 10:17:43;;;;;;;14.5;7.6;;;;;;;5.02;51.91797;948.717;;;;
2024/01/21 10:20:08;;;;;;;10.6;6.1;;;;;;;5.14;51.37988;948.6923;;;;
2024/01/21 10:22:33;;;;;;;8.5;5;;;;;;;5.07;52.03711;948.7256;;;;
2024/01/21 10:25:01;;;;;;;9;5.5;;;;;;;5.01;53.16895;948.663;;;;
2024/01/21 10:27:25;;;;;;;8.8;5.8;;;;;;;4.8;54.92285;948.5964;;;;
2024/01/21 10:29:51;;;;;;;9;5.3;;;;;;;4.67;55.41309;948.569;;;;
2024/01/21 10:32:17;;;;;;;8.4;6.2;;;;;;;4.63;55.26074;948.5945;;;;
2024/01/21 10:34:44;;;;;;;13.6;9.1;;;;;;;4.63;55.8125;948.6254;;;;
2024/01/21 10:37:13;;;;;;;40.3;21.7;;;;;;;4.65;55.65723;948.5797;;;;
2024/01/21 10:39:41;;;;;;;49.2;26.1;;;;;;;4.52;54.78516;948.6046;;;;
2024/01/21 10:42:07;;;;;;;93.5;49.6;;;;;;;4.53;54.75391;948.588;;;;
2024/01/21 10:44:32;;;;;;;41.3;24.8;;;;;;;4.49;53.86816;948.476;;;;
2024/01/21 10:47:01;;;;;;;27.5;16.5;;;;;;;4.33;55.99902;948.3737;;;;
2024/01/21 10:49:31;;;;;;;14.1;8.3;;;;;;;4.44;56.21582;948.472;;;;
2024/01/21 10:51:56;;;;;;;20.5;12;;;;;;;4.52;55.28027;948.4266;;;;
2024/01/21 10:54:24;;;;;;;26.4;13.9;;;;;;;4.48;55.17285;948.4581;;;;
2024/01/21 10:56:49;;;;;;;18.5;11.3;;;;;;;4.46;54.5752;948.378;;;;
2024/01/21 10:59:17;;;;;;;13.8;9;;;;;;;4.59;55.44727;948.3658;;;;
2024/01/21 11:01:45;;;;;;;17.8;10.2;;;;;;;4.81;55.94727;948.2868;;;;
2024/01/21 11:04:16;;;;;;;16.4;10.3;;;;;;;4.78;56.32715;948.2676;;;;
2024/01/21 11:06:42;;;;;;;17.8;8.8;;;;;;;4.87;55.55176;948.2455;;;;
2024/01/21 11:09:06;;;;;;;12.3;6;;;;;;;4.85;53.97168;948.2028;;;;
2024/01/21 11:11:30;;;;;;;7.3;4.4;;;;;;;4.72;52.80566;948.13;;;;
2024/01/21 11:14:00;;;;;;;6.9;3.3;;;;;;;4.5;51.65332;948.1266;;;;
2024/01/21 11:16:30;;;;;;;8.2;4.9;;;;;;;4.49;53.82422;948.111;;;;
2024/01/21 11:18:56;;;;;;;7;5.1;;;;;;;4.5;55.01953;948.0928;;;;
2024/01/21 11:21:23;;;;;;;10.2;5.1;;;;;;;4.62;55.59766;948.1043;;;;
2024/01/21 11:23:48;;;;;;;9.9;5.2;;;;;;;4.61;56.15918;948.05;;;;
2024/01/21 11:26:13;;;;;;;7.9;4.9;;;;;;;4.69;55.1123;948.073;;;;
2024/01/21 11:28:44;;;;;;;8.2;4.4;;;;;;;4.74;53.6748;948.1121;;;;
2024/01/21 11:31:10;;;;;;;6.4;4.1;;;;;;;4.71;55.05762;948.0737;;;;
2024/01/21 11:33:38;;;;;;;6.8;4;;;;;;;4.67;54.625;948.0736;;;;
2024/01/21 11:36:02;;;;;;;9.2;4;;;;;;;4.54;55.3291;948.0891;;;;
2024/01/21 11:38:27;;;;;;;7.6;4.4;;;;;;;4.48;54.79004;948.0758;;;;
2024/01/21 11:40:54;;;;;;;6.6;4.5;;;;;;;4.33;55.25586;947.9911;;;;
2024/01/21 11:43:20;;;;;;;7.3;3.8;;;;;;;4.19;57.39844;948.0867;;;;
2024/01/21 11:45:50;;;;;;;5.9;3.7;;;;;;;4.19;56.70117;947.8808;;;;
2024/01/21 11:48:23;;;;;;;5.5;3.2;;;;;;;4.25;56.55176;947.8519;;;;
2024/01/21 11:50:45;;;;;;;6.3;4;;;;;;;4.23;57.26953;947.8351;;;;
2024/01/21 11:53:11;;;;;;;9.4;5.2;;;;;;;4.28;56.79004;947.8569;;;;
2024/01/21 11:55:36;;;;;;;12;6.9;;;;;;;4.18;58.08301;947.815;;;;
2024/01/21 11:58:02;;;;;;;9.5;5.4;;;;;;;4.3;58.77441;947.7011;;;;
2024/01/21 12:00:28;;;;;;;13.5;6.8;;;;;;;4.19;59.6582;947.7166;;;;
2024/01/21 12:02:55;;;;;;;14.4;6.9;;;;;;;4.11;59.74902;947.7089;;;;
2024/01/21 12:05:20;;;;;;;161.7;58;;;;;;;4.18;60.14063;947.7375;;;;
2024/01/21 12:07:46;;;;;;;375;139.3;;;;;;;4.22;60.60742;947.7389;;;;
2024/01/21 12:10:16;;;;;;;664.4;284.7;;;;;;;4.16;61.37598;947.775;;;;
2024/01/21 12:12:43;;;;;;;51.4;27.5;;;;;;;4.24;61.24121;947.777;;;;
2024/01/21 12:15:14;;;;;;;19.9;11.3;;;;;;;4.3;61.14746;947.7277;;;;
2024/01/21 12:17:39;;;;;;;23.8;11.8;;;;;;;4.22;60.85449;947.5948;;;;
2024/01/21 12:20:06;;;;;;;17;10.4;;;;;;;4.24;58.81055;947.6446;;;;
2024/01/21 12:22:31;;;;;;;19.3;10.1;;;;;;;4.25;58.80176;947.5949;;;;
2024/01/21 12:24:58;;;;;;;15.2;7.6;;;;;;;4.29;59.18945;947.4342;;;;
2024/01/21 12:27:23;;;;;;;21.3;8.3;;;;;;;4.35;59.99609;947.485;;;;
2024/01/21 12:29:52;;;;;;;16.9;7.7;;;;;;;4.32;60.17285;947.5009;;;;
2024/01/21 12:32:17;;;;;;;11.9;7.6;;;;;;;4.45;58.27637;947.4551;;;;
2024/01/21 12:34:43;;;;;;;15.3;8.1;;;;;;;4.42;58.52051;947.5347;;;;
2024/01/21 12:37:12;;;;;;;18.3;9.4;;;;;;;4.46;59.3584;947.5661;;;;
2024/01/21 12:39:34;;;;;;;17;10.4;;;;;;;4.34;60.61426;947.5858;;;;
2024/01/21 12:42:01;;;;;;;18.2;8.7;;;;;;;4.3;60.47363;947.5712;;;;
2024/01/21 12:44:26;;;;;;;12.6;7.3;;;;;;;4.37;60.57324;947.4819;;;;
2024/01/21 12:46:53;;;;;;;14.4;6.8;;;;;;;4.31;60.44141;947.5115;;;;
2024/01/21 12:49:18;;;;;;;13.6;6.5;;;;;;;4.28;61.57422;947.5544;;;;
2024/01/21 12:51:45;;;;;;;12.7;5.9;;;;;;;4.25;61.95117;947.6113;;;;
2024/01/21 12:54:13;;;;;;;9;5.7;;;;;;;4.24;62.37793;947.6007;;;;
2024/01/21 12:56:35;;;;;;;10.7;5.8;;;;;;;4.23;63.06152;947.5975;;;;
2024/01/21 12:59:04;;;;;;;10;5.5;;;;;;;4.27;62.60742;947.588;;;;
2024/01/21 13:01:29;;;;;;;11.7;6.2;;;;;;;4.29;62.9707;947.7195;;;;
2024/01/21 13:03:54;;;;;;;18.6;9.8;;;;;;;4.29;63.5332;947.7189;;;;
2024/01/21 13:06:22;;;;;;;126.2;60.3;;;;;;;4.49;64.10352;947.6434;;;;
2024/01/21 13:08:47;;;;;;;59.1;30.9;;;;;;;4.64;64.70117;947.6406;;;;
2024/01/21 13:11:16;;;;;;;50.9;28.7;;;;;;;4.6;65.33594;947.6351;;;;
2024/01/21 13:13:45;;;;;;;43.7;24.9;;;;;;;4.55;65.70996;947.6256;;;;
2024/01/21 13:16:10;;;;;;;24.3;14.5;;;;;;;4.51;65.10645;947.5874;;;;
2024/01/21 13:18:41;;;;;;;13.6;8.2;;;;;;;4.42;65.06055;947.6306;;;;
2024/01/21 13:21:11;;;;;;;26.3;13.8;;;;;;;4.52;64.85059;947.6451;;;;
2024/01/21 13:23:33;;;;;;;29.1;15.8;;;;;;;4.56;64.0918;947.7004;;;;
2024/01/21 13:26:00;;;;;;;22.2;12.5;;;;;;;4.49;64.25;947.8208;;;;
2024/01/21 13:28:39;;;;;;;18.5;10.2;;;;;;;4.53;64.33301;947.9244;;;;
2024/01/21 13:30:53;;;;;;;14.1;8.1;;;;;;;4.65;63.18066;947.9219;;;;
2024/01/21 13:33:15;;;;;;;12.4;7.1;;;;;;;4.76;61.83301;948.0089;;;;
2024/01/21 13:35:43;;;;;;;16.9;9.9;;;;;;;4.75;61.77734;948.0156;;;;
2024/01/21 13:38:08;;;;;;;9.2;5.8;;;;;;;4.76;62.9834;948.0192;;;;
2024/01/21 13:40:36;;;;;;;8.7;4.6;;;;;;;4.86;60.0791;947.983;;;;
2024/01/21 13:43:01;;;;;;;7.4;4.1;;;;;;;4.83;59.95215;947.8817;;;;
2024/01/21 13:45:36;;;;;;;7.4;3.9;;;;;;;4.77;59.83105;947.9266;;;;
2024/01/21 13:48:04;;;;;;;8.1;4.1;;;;;;;4.77;61.10254;948.0053;;;;
2024/01/21 13:50:30;;;;;;;15;6.8;;;;;;;4.78;62.20801;947.9641;;;;
2024/01/21 13:53:01;;;;;;;18.2;8.6;;;;;;;4.8;63.2373;947.9666;;;;
2024/01/21 13:55:25;;;;;;;15.2;7.2;;;;;;;4.93;64.50684;947.8781;;;;
2024/01/21 13:57:51;;;;;;;13.3;7.4;;;;;;;4.95;64.35156;947.9011;;;;
2024/01/21 14:00:25;;;;;;;10.8;6.4;;;;;;;4.92;65.12598;947.9103;;;;
2024/01/21 14:02:55;;;;;;;9.7;5.7;;;;;;;4.9;65.74316;947.8549;;;;
2024/01/21 14:05:19;;;;;;;7.9;4.7;;;;;;;4.82;65.95508;947.8738;;;;
2024/01/21 14:07:47;;;;;;;7;3.3;;;;;;;4.95;65.43359;947.9011;;;;
2024/01/21 14:10:12;;;;;;;4.2;2.5;;;;;;;5.09;62.47949;947.9483;;;;
2024/01/21 14:12:38;;;;;;;4.9;2.9;;;;;;;5.08;62.81641;947.9857;;;;
2024/01/21 14:15:03;;;;;;;4.1;2.5;;;;;;;5;62.87207;948.0344;;;;
2024/01/21 14:17:30;;;;;;;4.8;2.7;;;;;;;5.01;63.61719;947.9833;;;;
2024/01/21 14:19:58;;;;;;;5.2;2.5;;;;;;;5.05;63.43262;948.0657;;;;
2024/01/21 14:22:23;;;;;;;2.4;1.8;;;;;;;5.03;61.8623;948.1005;;;;
2024/01/21 14:24:49;;;;;;;3.4;2.1;;;;;;;4.94;62.12012;948.0502;;;;
2024/01/21 14:27:15;;;;;;;4.9;1.9;;;;;;;4.93;62.56836;948.1356;;;;